createdAt,value
2022-12-27T17:41:10.332Z,2.63
2022-12-27T17:44:31.458Z,3.46
2022-12-27T17:47:20.495Z,4.15
2022-12-27T17:49:47.741Z,4.60
2022-12-27T17:52:39.870Z,5.04
2022-12-27T17:55:37.631Z,5.47
2022-12-27T17:58:09.775Z,5.81
2022-12-27T18:00:59.321Z,6.12
2022-12-27T18:03:36.020Z,6.36
2022-12-27T18:06:03.849Z,6.57
2022-12-27T18:08:34.029Z,6.76
2022-12-27T18:11:03.523Z,6.93
2022-12-27T18:13:39.027Z,7.07
2022-12-27T18:16:22.819Z,7.19
2022-12-27T18:18:53.780Z,7.25
2022-12-27T18:21:27.718Z,7.33
2022-12-27T18:23:55.518Z,7.38
2022-12-27T18:26:35.487Z,7.44
2022-12-27T18:29:02.336Z,7.47
2022-12-27T18:31:36.706Z,7.51
2022-12-27T18:34:29.138Z,7.55
2022-12-27T18:37:09.965Z,7.58
2022-12-27T18:39:39.208Z,7.62
2022-12-27T18:42:35.395Z,7.65
2022-12-27T18:45:27.473Z,7.68
2022-12-27T18:48:00.130Z,7.70
2022-12-27T18:50:30.227Z,7.75
2022-12-27T18:53:22.611Z,7.77
2022-12-27T18:56:02.282Z,7.79
2022-12-27T18:58:29.091Z,7.81
2022-12-27T19:01:19.264Z,7.89
2022-12-27T19:04:14.190Z,7.96
2022-12-27T19:07:09.364Z,7.98
2022-12-27T19:09:43.221Z,8.01
2022-12-27T19:12:34.160Z,8.06
2022-12-27T19:15:02.211Z,8.07
2022-12-27T19:17:31.220Z,8.10
2022-12-27T19:20:05.692Z,8.14
2022-12-27T19:22:53.100Z,8.17
2022-12-27T19:25:35.960Z,8.20
2022-12-27T19:28:30.506Z,8.22
2022-12-27T19:31:16.234Z,8.26
2022-12-27T19:33:48.164Z,8.29
2022-12-27T19:36:15.155Z,8.31
2022-12-27T19:38:47.577Z,8.37
2022-12-27T19:41:16.158Z,8.41
2022-12-27T19:43:46.147Z,8.45
2022-12-27T19:46:14.798Z,8.52
2022-12-27T19:48:41.831Z,8.59
2022-12-27T19:51:16.357Z,8.63
2022-12-27T19:53:52.309Z,8.67
2022-12-27T19:56:22.437Z,8.71
2022-12-27T19:58:49.851Z,8.75
2022-12-27T20:01:16.737Z,8.80
2022-12-27T20:03:43.617Z,8.85
2022-12-27T20:06:14.985Z,8.89
2022-12-27T20:08:50.451Z,8.94
2022-12-27T20:11:21.426Z,8.98
2022-12-27T20:13:49.409Z,9.03
2022-12-27T20:16:18.666Z,9.07
2022-12-27T20:18:46.565Z,9.11
2022-12-27T20:21:19.030Z,9.15
2022-12-27T20:23:46.714Z,9.20
2022-12-27T20:26:18.206Z,9.23
2022-12-27T20:28:45.170Z,9.27
2022-12-27T20:31:16.050Z,9.30
2022-12-27T20:33:43.140Z,9.33
2022-12-27T20:36:11.187Z,9.38
2022-12-27T20:38:39.226Z,9.40
2022-12-27T20:41:12.821Z,9.42
2022-12-27T20:43:40.189Z,9.42
2022-12-27T20:46:27.056Z,9.44
2022-12-27T20:48:55.606Z,9.43
2022-12-27T20:51:28.067Z,9.46
2022-12-27T20:53:58.362Z,9.46
2022-12-27T20:56:25.723Z,9.46
2022-12-27T20:58:52.815Z,9.47
2022-12-27T21:01:25.933Z,9.48
2022-12-27T21:03:55.892Z,9.49
2022-12-27T21:06:26.781Z,9.49
2022-12-27T21:08:57.172Z,9.50
2022-12-27T21:11:33.841Z,9.49
2022-12-27T21:14:03.365Z,9.50
2022-12-27T21:16:33.562Z,9.50
2022-12-27T21:19:04.661Z,9.49
2022-12-27T21:21:34.207Z,9.50
2022-12-27T21:24:01.144Z,9.47
2022-12-27T21:26:35.352Z,9.47
2022-12-27T21:29:03.985Z,9.42
2022-12-27T21:31:31.941Z,9.40
2022-12-27T21:33:59.743Z,9.41
2022-12-27T21:36:30.352Z,9.42
2022-12-27T21:38:57.475Z,9.43
2022-12-27T21:41:31.042Z,9.41
2022-12-27T21:43:57.914Z,9.38
2022-12-27T21:46:32.000Z,9.37
2022-12-27T21:49:05.914Z,9.34
2022-12-27T21:51:34.387Z,9.31
2022-12-27T21:54:02.062Z,9.26
2022-12-27T21:56:30.136Z,9.20
2022-12-27T21:58:58.390Z,9.18
2022-12-27T22:01:51.572Z,9.14
2022-12-27T22:04:18.327Z,9.07
2022-12-27T22:06:47.391Z,9.03
2022-12-27T22:09:15.067Z,8.96
2022-12-27T22:11:42.129Z,8.92
2022-12-27T22:14:08.953Z,8.87
2022-12-27T22:16:38.488Z,8.82
2022-12-27T22:19:08.308Z,8.78
2022-12-27T22:21:37.053Z,8.74
2022-12-27T22:24:04.701Z,8.70
2022-12-27T22:26:37.184Z,8.68
2022-12-27T22:29:05.317Z,8.62
2022-12-27T22:31:37.806Z,8.60
2022-12-27T22:34:06.166Z,8.57
2022-12-27T22:36:33.568Z,8.57
2022-12-27T22:39:00.584Z,8.57
2022-12-27T22:41:33.968Z,8.61
2022-12-27T22:44:07.437Z,8.60
2022-12-27T22:49:21.813Z,8.63
2022-12-27T22:51:48.599Z,8.64
2022-12-27T22:54:15.398Z,8.66
2022-12-27T22:56:43.632Z,8.65
2022-12-27T22:59:16.345Z,8.68
2022-12-27T23:01:44.850Z,8.65
2022-12-27T23:04:13.564Z,8.63
2022-12-27T23:06:41.027Z,8.61
2022-12-27T23:09:08.778Z,8.59
2022-12-27T23:11:38.565Z,8.55
2022-12-27T23:14:16.343Z,8.53
2022-12-27T23:16:47.259Z,8.49
2022-12-27T23:19:16.872Z,8.46
2022-12-27T23:21:44.009Z,8.44
2022-12-27T23:24:11.456Z,8.44
2022-12-27T23:26:38.942Z,8.41
2022-12-27T23:29:06.845Z,8.41
2022-12-27T23:31:34.339Z,8.41
2022-12-27T23:34:01.194Z,8.41
2022-12-27T23:36:28.045Z,8.41
2022-12-27T23:38:55.482Z,8.42
2022-12-27T23:41:24.796Z,8.40
2022-12-27T23:43:54.874Z,8.41
2022-12-27T23:46:32.446Z,8.42
2022-12-27T23:49:02.839Z,8.40
2022-12-27T23:51:31.117Z,8.41
2022-12-27T23:53:58.329Z,8.41
2022-12-27T23:56:27.669Z,8.42
2022-12-27T23:58:57.012Z,8.43
